createdAt,value
2023-05-12T00:01:12.638Z,91.47
2023-05-12T00:03:39.538Z,91.34
2023-05-12T00:06:06.551Z,91.28
2023-05-12T00:08:33.637Z,91.74
2023-05-12T00:11:01.768Z,91.60
2023-05-12T00:13:28.746Z,92.04
2023-05-12T00:15:55.651Z,92.81
2023-05-12T00:18:23.080Z,92.53
2023-05-12T00:20:49.924Z,92.46
2023-05-12T00:23:16.769Z,92.23
2023-05-12T00:25:43.600Z,92.31
2023-05-12T00:28:10.410Z,92.18
2023-05-12T00:30:37.185Z,91.92
2023-05-12T00:33:05.199Z,92.02
2023-05-12T00:35:32.005Z,93.10
2023-05-12T00:37:58.835Z,93.41
2023-05-12T00:40:25.705Z,93.11
2023-05-12T00:42:52.454Z,93.54
2023-05-12T00:45:19.279Z,93.43
2023-05-12T00:47:46.728Z,93.31
2023-05-12T00:50:13.671Z,94.02
2023-05-12T00:52:40.876Z,93.54
2023-05-12T00:55:08.111Z,93.76
2023-05-12T00:57:34.938Z,93.25
2023-05-12T01:00:01.821Z,94.01
2023-05-12T01:02:29.182Z,94.07
2023-05-12T01:04:56.132Z,93.80
2023-05-12T01:07:23.205Z,93.74
2023-05-12T01:09:57.259Z,93.74
2023-05-12T01:12:24.515Z,94.54
2023-05-12T01:14:53.247Z,94.46
2023-05-12T01:17:22.458Z,94.51
2023-05-12T01:20:00.165Z,94.38
2023-05-12T01:22:29.833Z,94.41
2023-05-12T01:25:02.728Z,94.54
2023-05-12T01:27:30.436Z,94.52
2023-05-12T01:30:05.130Z,93.79
2023-05-12T01:32:32.163Z,94.02
2023-05-12T01:34:58.980Z,94.58
2023-05-12T01:37:25.830Z,94.09
2023-05-12T01:39:53.984Z,93.50
2023-05-12T01:42:20.862Z,94.11
2023-05-12T01:44:47.829Z,93.80
2023-05-12T01:47:14.761Z,93.81
2023-05-12T01:49:41.742Z,94.66
2023-05-12T01:52:08.634Z,94.86
2023-05-12T01:54:35.435Z,94.57
2023-05-12T01:57:02.210Z,94.82
2023-05-12T01:59:29.188Z,94.92
2023-05-12T02:01:56.186Z,95.20
2023-05-12T02:04:23.121Z,95.14
2023-05-12T02:06:49.955Z,94.68
2023-05-12T02:09:16.841Z,94.40
2023-05-12T02:11:43.623Z,94.27
2023-05-12T02:14:10.496Z,94.88
2023-05-12T02:16:37.366Z,94.47
2023-05-12T02:19:04.376Z,95.22
2023-05-12T02:21:31.354Z,93.86
2023-05-12T02:23:58.313Z,94.05
2023-05-12T02:26:25.281Z,95.04
2023-05-12T02:28:52.067Z,94.17
2023-05-12T02:31:19.076Z,93.56
2023-05-12T02:33:45.879Z,93.22
2023-05-12T02:36:12.720Z,93.17
2023-05-12T02:38:39.519Z,93.01
2023-05-12T02:41:06.299Z,93.41
2023-05-12T02:43:33.143Z,92.61
2023-05-12T02:46:00.217Z,92.83
2023-05-12T02:48:27.146Z,93.26
2023-05-12T02:50:53.941Z,93.25
2023-05-12T02:53:20.818Z,92.10
2023-05-12T02:55:47.681Z,92.46
2023-05-12T02:58:14.538Z,92.77
2023-05-12T03:00:41.375Z,92.57
2023-05-12T03:03:08.310Z,92.75
2023-05-12T03:05:35.358Z,92.99
2023-05-12T03:08:02.421Z,92.98
2023-05-12T03:10:29.307Z,92.18
2023-05-12T03:12:56.085Z,92.15
2023-05-12T03:15:23.033Z,91.86
2023-05-12T03:17:49.867Z,93.09
2023-05-12T03:20:16.841Z,92.38
2023-05-12T03:22:43.791Z,92.51
2023-05-12T03:25:10.656Z,92.24
2023-05-12T03:27:37.531Z,91.68
2023-05-12T03:30:04.728Z,91.79
2023-05-12T03:32:31.631Z,92.71
2023-05-12T03:34:58.729Z,92.96
2023-05-12T03:37:25.656Z,92.67
2023-05-12T03:39:52.481Z,92.98
2023-05-12T03:42:19.286Z,93.46
2023-05-12T03:44:46.158Z,93.29
2023-05-12T03:47:13.042Z,92.85
2023-05-12T03:49:39.959Z,92.96
2023-05-12T03:52:07.229Z,92.72
2023-05-12T03:54:35.136Z,92.85
2023-05-12T03:57:02.927Z,91.58
2023-05-12T03:59:33.327Z,91.87
2023-05-12T04:02:00.251Z,91.68
2023-05-12T04:04:27.103Z,92.23
2023-05-12T04:06:59.005Z,92.66
2023-05-12T04:09:25.817Z,92.68
2023-05-12T04:11:52.620Z,92.41
2023-05-12T04:14:21.544Z,92.46
2023-05-12T04:16:53.442Z,92.10
2023-05-12T04:19:20.371Z,92.48
2023-05-12T04:21:47.198Z,91.57
2023-05-12T04:24:13.999Z,92.06
2023-05-12T04:26:40.983Z,91.60
2023-05-12T04:29:07.844Z,91.34
2023-05-12T04:31:34.701Z,91.90
2023-05-12T04:34:01.681Z,90.67
2023-05-12T04:36:28.640Z,89.87
2023-05-12T04:38:55.507Z,89.20
2023-05-12T04:41:22.490Z,89.85
2023-05-12T04:46:19.076Z,89.41
2023-05-12T04:48:46.060Z,88.67
2023-05-12T04:51:12.958Z,86.95
2023-05-12T04:53:39.779Z,87.21
2023-05-12T04:56:06.720Z,87.13
2023-05-12T04:58:33.703Z,86.41
2023-05-12T05:01:00.793Z,87.23
2023-05-12T05:06:08.332Z,87.97
2023-05-12T05:08:35.126Z,89.51
2023-05-12T05:11:02.057Z,90.00
2023-05-12T05:13:28.925Z,90.67
2023-05-12T05:15:55.900Z,89.55
2023-05-12T05:18:24.224Z,89.07
2023-05-12T05:20:57.976Z,88.11
2023-05-12T05:23:26.047Z,88.38
2023-05-12T05:25:53.174Z,86.85
2023-05-12T05:28:20.091Z,87.16
2023-05-12T05:30:46.899Z,86.24
2023-05-12T05:33:13.685Z,85.37
2023-05-12T05:35:41.110Z,86.00
2023-05-12T05:38:08.156Z,85.87
2023-05-12T05:40:48.845Z,83.67
2023-05-12T05:43:19.678Z,84.01
2023-05-12T05:45:46.622Z,85.30
2023-05-12T05:48:13.469Z,85.06
2023-05-12T05:50:40.529Z,84.44
2023-05-12T05:53:07.379Z,83.30
2023-05-12T05:55:34.206Z,81.94
2023-05-12T05:58:01.257Z,81.76
2023-05-12T06:00:28.222Z,81.66
2023-05-12T06:02:55.139Z,82.27
2023-05-12T06:05:22.474Z,83.71
2023-05-12T06:07:49.539Z,81.60
2023-05-12T06:10:16.482Z,81.46
2023-05-12T06:12:43.367Z,81.94
2023-05-12T06:15:11.204Z,81.79
2023-05-12T06:17:38.638Z,81.63
2023-05-12T06:20:06.285Z,80.63
2023-05-12T06:22:33.045Z,81.23
2023-05-12T06:24:59.858Z,79.51
2023-05-12T06:27:26.827Z,79.58
2023-05-12T06:29:53.684Z,78.20
2023-05-12T06:32:20.637Z,77.42
2023-05-12T06:34:47.539Z,77.42
2023-05-12T06:37:14.404Z,77.74
2023-05-12T06:39:41.355Z,79.75
2023-05-12T06:42:08.368Z,80.69
2023-05-12T06:44:35.248Z,79.75
2023-05-12T06:47:22.392Z,79.16
2023-05-12T06:49:49.666Z,77.21
2023-05-12T06:52:16.683Z,77.06
2023-05-12T06:54:43.627Z,77.54
2023-05-12T06:57:10.583Z,77.15
2023-05-12T06:59:37.536Z,79.03
2023-05-12T07:02:04.833Z,80.76
2023-05-12T07:04:31.674Z,81.83
2023-05-12T07:06:58.648Z,83.15
2023-05-12T07:09:25.459Z,84.68
2023-05-12T07:11:52.379Z,83.58
2023-05-12T07:14:19.327Z,83.98
2023-05-12T07:16:46.314Z,84.40
2023-05-12T07:19:13.315Z,84.49
2023-05-12T07:21:40.321Z,85.13
2023-05-12T07:24:07.342Z,85.52
2023-05-12T07:26:34.200Z,85.36
2023-05-12T07:29:01.330Z,84.81
2023-05-12T07:31:28.964Z,83.95
2023-05-12T07:33:56.181Z,85.14
2023-05-12T07:36:23.322Z,86.65
2023-05-12T07:38:50.426Z,87.95
2023-05-12T07:41:17.203Z,88.18
2023-05-12T07:43:44.149Z,88.78
2023-05-12T07:46:11.346Z,88.53
2023-05-12T07:48:38.212Z,89.12
2023-05-12T07:51:05.440Z,88.25
2023-05-12T07:53:32.503Z,89.10
2023-05-12T07:55:59.580Z,89.44
2023-05-12T07:58:26.473Z,90.85
2023-05-12T08:00:53.490Z,91.23
2023-05-12T08:03:20.849Z,92.00
2023-05-12T08:05:47.795Z,92.77
2023-05-12T08:08:14.825Z,91.93
2023-05-12T08:10:41.768Z,90.96
2023-05-12T08:13:08.734Z,90.97
2023-05-12T08:15:35.900Z,91.32
2023-05-12T08:18:03.078Z,92.12
2023-05-12T08:20:30.001Z,92.43
2023-05-12T08:22:57.036Z,91.11
2023-05-12T08:25:24.000Z,91.04
2023-05-12T08:27:50.947Z,90.83
2023-05-12T08:30:18.003Z,90.29
2023-05-12T08:32:45.124Z,85.39
2023-05-12T08:35:12.299Z,87.67
2023-05-12T08:37:39.306Z,87.01
2023-05-12T08:40:14.878Z,86.92
2023-05-12T08:42:44.877Z,85.76
2023-05-12T08:45:12.172Z,86.01
2023-05-12T08:47:40.120Z,83.43
2023-05-12T08:50:08.425Z,83.65
2023-05-12T08:52:36.350Z,83.56
2023-05-12T08:55:05.035Z,85.78
2023-05-12T08:57:32.041Z,84.68
2023-05-12T08:59:59.159Z,83.45
2023-05-12T09:02:32.783Z,82.77
2023-05-12T09:05:05.104Z,79.25
2023-05-12T09:07:32.652Z,81.79
2023-05-12T09:10:02.640Z,78.94
2023-05-12T09:12:34.858Z,82.80
2023-05-12T09:15:07.234Z,83.03
2023-05-12T09:17:35.659Z,80.16
2023-05-12T09:20:02.641Z,79.94
2023-05-12T09:22:33.167Z,80.02
2023-05-12T09:25:00.126Z,78.38
2023-05-12T09:27:28.509Z,78.23
2023-05-12T09:29:59.564Z,75.32
2023-05-12T09:32:34.705Z,76.55
2023-05-12T09:35:11.600Z,76.29
2023-05-12T09:37:39.559Z,73.85
2023-05-12T09:40:08.345Z,73.46
2023-05-12T09:42:36.199Z,74.84
2023-05-12T09:45:07.646Z,72.13
2023-05-12T09:47:36.425Z,75.06
2023-05-12T09:50:08.035Z,69.59
2023-05-12T09:52:40.078Z,70.27
2023-05-12T09:55:07.414Z,70.45
2023-05-12T09:57:38.795Z,69.48
2023-05-12T10:00:29.776Z,69.37
2023-05-12T10:02:59.601Z,68.03
2023-05-12T10:05:27.531Z,66.04
2023-05-12T10:08:00.018Z,67.80
2023-05-12T10:10:28.805Z,69.83
2023-05-12T10:12:55.987Z,66.87
2023-05-12T10:15:24.763Z,67.54
2023-05-12T10:17:54.120Z,65.28
2023-05-12T10:20:21.627Z,65.11
2023-05-12T10:22:50.114Z,65.23
2023-05-12T10:25:17.876Z,65.54
2023-05-12T10:27:45.531Z,64.05
2023-05-12T10:30:13.099Z,65.79
2023-05-12T10:32:41.159Z,63.33
2023-05-12T10:35:10.046Z,63.31
2023-05-12T10:37:37.196Z,64.80
2023-05-12T10:40:04.456Z,62.94
2023-05-12T10:42:43.987Z,63.36
2023-05-12T10:45:18.732Z,61.87
2023-05-12T10:47:47.412Z,59.05
2023-05-12T10:50:14.777Z,61.63
2023-05-12T10:52:56.541Z,63.67
2023-05-12T10:55:35.423Z,63.27
2023-05-12T10:58:07.431Z,64.21
2023-05-12T11:00:45.693Z,63.87
2023-05-12T11:03:16.562Z,64.55
2023-05-12T11:05:45.899Z,64.48
2023-05-12T11:08:14.196Z,65.54
2023-05-12T11:10:42.304Z,65.16
2023-05-12T11:13:10.054Z,64.65
2023-05-12T11:15:37.673Z,64.08
2023-05-12T11:18:04.911Z,64.72
2023-05-12T11:20:31.808Z,63.50
2023-05-12T11:22:58.706Z,62.88
2023-05-12T11:25:27.963Z,64.94
2023-05-12T11:27:55.283Z,64.98
2023-05-12T11:30:22.358Z,64.39
2023-05-12T11:32:59.754Z,64.30
2023-05-12T11:35:31.254Z,62.92
2023-05-12T11:37:58.250Z,62.49
2023-05-12T11:40:28.357Z,61.71
2023-05-12T11:42:55.170Z,61.11
2023-05-12T11:45:23.122Z,61.12
2023-05-12T11:47:50.254Z,61.17
2023-05-12T11:50:21.864Z,61.35
2023-05-12T11:52:49.107Z,61.57
2023-05-12T11:55:21.783Z,63.13
2023-05-12T11:57:57.010Z,62.37
2023-05-12T12:00:29.184Z,60.94
2023-05-12T12:03:12.964Z,61.01
2023-05-12T12:05:42.499Z,60.20
2023-05-12T12:08:14.933Z,60.14
2023-05-12T12:10:45.630Z,59.68
2023-05-12T12:13:22.935Z,57.91
2023-05-12T12:15:50.859Z,57.36
2023-05-12T12:18:17.896Z,58.37
2023-05-12T12:20:46.454Z,59.37
2023-05-12T12:23:13.458Z,61.19
2023-05-12T12:25:40.246Z,62.29
2023-05-12T12:28:07.031Z,62.43
2023-05-12T12:30:34.457Z,62.23
2023-05-12T12:33:01.298Z,61.97
2023-05-12T12:35:28.153Z,62.42
2023-05-12T12:37:55.045Z,61.50
2023-05-12T12:40:21.902Z,60.65
2023-05-12T12:42:48.766Z,60.03
2023-05-12T12:45:16.216Z,61.48
2023-05-12T12:47:44.242Z,60.08
2023-05-12T12:50:11.615Z,60.07
2023-05-12T12:52:38.701Z,58.89
2023-05-12T12:55:06.816Z,58.47
2023-05-12T12:57:33.790Z,57.84
2023-05-12T13:00:00.755Z,58.29
2023-05-12T13:02:28.078Z,58.74
2023-05-12T13:04:54.912Z,58.56
2023-05-12T13:07:21.740Z,58.08
2023-05-12T13:09:48.582Z,58.62
2023-05-12T13:12:16.953Z,60.50
2023-05-12T13:14:43.882Z,59.34
2023-05-12T13:17:10.788Z,61.31
2023-05-12T13:19:38.314Z,59.77
2023-05-12T13:22:06.223Z,58.85
2023-05-12T13:24:33.037Z,59.11
2023-05-12T13:27:00.168Z,59.68
2023-05-12T13:29:27.052Z,60.20
2023-05-12T13:31:54.329Z,60.28
2023-05-12T13:34:21.183Z,60.43
2023-05-12T13:36:48.052Z,61.40
2023-05-12T13:39:14.885Z,60.50
2023-05-12T13:41:41.773Z,60.11
2023-05-12T13:44:08.667Z,59.16
2023-05-12T13:46:35.617Z,60.12
2023-05-12T13:49:02.516Z,58.92
2023-05-12T13:51:29.479Z,57.98
2023-05-12T13:53:56.393Z,59.03
2023-05-12T13:56:23.290Z,59.39
2023-05-12T13:58:50.320Z,60.19
2023-05-12T14:01:17.234Z,59.61
2023-05-12T14:03:44.096Z,58.14
2023-05-12T14:06:11.023Z,58.50
2023-05-12T14:08:37.833Z,56.41
2023-05-12T14:11:05.211Z,56.49
2023-05-12T14:13:32.052Z,55.36
2023-05-12T14:15:58.891Z,55.36
2023-05-12T14:18:25.872Z,56.24
2023-05-12T14:20:53.056Z,56.41
2023-05-12T14:23:19.962Z,57.21
2023-05-12T14:25:46.872Z,58.79
2023-05-12T14:28:13.878Z,60.76
2023-05-12T14:30:40.906Z,62.67
2023-05-12T14:33:08.006Z,63.04
2023-05-12T14:35:35.184Z,63.58
2023-05-12T14:38:02.117Z,64.85
2023-05-12T14:40:28.933Z,64.49
2023-05-12T14:42:55.869Z,65.39
2023-05-12T14:45:23.076Z,65.98
2023-05-12T14:47:50.255Z,66.00
2023-05-12T14:50:17.537Z,66.88
2023-05-12T14:52:44.626Z,67.43
2023-05-12T14:55:11.978Z,67.99
2023-05-12T14:57:39.758Z,68.27
2023-05-12T15:00:08.582Z,68.70
2023-05-12T15:02:35.493Z,69.22
2023-05-12T15:05:02.563Z,69.31
2023-05-12T15:07:29.613Z,70.19
2023-05-12T15:09:56.571Z,70.91
2023-05-12T15:12:23.616Z,70.95
2023-05-12T15:14:50.854Z,71.02
2023-05-12T15:17:17.842Z,71.49
2023-05-12T15:19:45.326Z,71.81
2023-05-12T15:22:12.096Z,71.95
2023-05-12T15:24:38.952Z,72.18
2023-05-12T15:27:05.952Z,72.55
2023-05-12T15:29:32.785Z,72.97
2023-05-12T15:31:59.568Z,73.45
2023-05-12T15:34:26.556Z,73.67
2023-05-12T15:36:59.573Z,73.44
2023-05-12T15:39:29.369Z,73.59
2023-05-12T15:41:56.306Z,73.57
2023-05-12T15:44:23.112Z,73.59
2023-05-12T15:46:50.088Z,73.50
2023-05-12T15:49:17.011Z,73.16
2023-05-12T15:51:44.077Z,73.93
2023-05-12T15:54:11.035Z,73.86
2023-05-12T15:56:37.959Z,74.00
2023-05-12T15:59:05.100Z,73.72
2023-05-12T16:01:32.253Z,74.40
2023-05-12T16:03:59.324Z,74.39
2023-05-12T16:06:28.658Z,74.77
2023-05-12T16:08:55.741Z,74.17
2023-05-12T16:11:22.666Z,75.20
2023-05-12T16:13:52.160Z,75.31
2023-05-12T16:16:19.715Z,75.67
2023-05-12T16:18:46.704Z,76.20
2023-05-12T16:21:13.651Z,76.31
2023-05-12T16:23:40.546Z,76.48
2023-05-12T16:26:07.413Z,75.97
2023-05-12T16:28:34.342Z,76.46
2023-05-12T16:31:02.370Z,76.12
2023-05-12T16:33:29.482Z,76.87
2023-05-12T16:35:56.523Z,77.27
2023-05-12T16:38:23.631Z,77.27
2023-05-12T16:40:50.580Z,77.72
2023-05-12T16:43:17.418Z,77.97
2023-05-12T16:45:44.388Z,77.92
2023-05-12T16:48:11.254Z,77.69
2023-05-12T16:50:38.097Z,77.75
2023-05-12T16:53:05.121Z,77.56
2023-05-12T16:55:31.944Z,77.20
2023-05-12T16:57:58.867Z,77.25
2023-05-12T17:00:25.800Z,77.84
2023-05-12T17:02:52.789Z,77.68
2023-05-12T17:05:20.076Z,77.71
2023-05-12T17:07:47.190Z,77.79
2023-05-12T17:10:14.046Z,77.75
2023-05-12T17:12:40.904Z,77.75
2023-05-12T17:15:10.070Z,78.32
2023-05-12T17:17:39.571Z,78.24
2023-05-12T17:20:07.017Z,78.26
2023-05-12T17:22:33.907Z,78.00
2023-05-12T17:25:00.891Z,78.25
2023-05-12T17:27:27.711Z,77.83
2023-05-12T17:29:54.663Z,78.16
2023-05-12T17:32:21.479Z,77.90
2023-05-12T17:34:50.005Z,78.06
2023-05-12T17:37:17.691Z,78.07
2023-05-12T17:39:44.746Z,78.02
2023-05-12T17:42:11.712Z,77.47
2023-05-12T17:44:38.687Z,77.23
2023-05-12T17:47:05.870Z,77.19
2023-05-12T17:49:32.761Z,76.39
2023-05-12T17:51:59.690Z,75.78
2023-05-12T17:54:26.466Z,75.17
2023-05-12T17:56:53.387Z,74.43
2023-05-12T17:59:20.351Z,74.62
2023-05-12T18:01:47.255Z,74.42
2023-05-12T18:04:14.181Z,74.20
2023-05-12T18:06:41.193Z,74.33
2023-05-12T18:09:08.041Z,74.29
2023-05-12T18:11:34.851Z,74.32
2023-05-12T18:14:02.355Z,74.50
2023-05-12T18:16:29.777Z,74.38
2023-05-12T18:18:57.078Z,74.75
2023-05-12T18:21:24.395Z,74.11
2023-05-12T18:23:51.318Z,74.84
2023-05-12T18:26:18.229Z,74.83
2023-05-12T18:28:45.121Z,75.18
2023-05-12T18:33:53.143Z,75.76
2023-05-12T18:36:19.994Z,76.42
2023-05-12T18:38:46.826Z,76.27
2023-05-12T18:41:13.827Z,76.40
2023-05-12T18:43:40.744Z,77.20
2023-05-12T18:46:07.730Z,77.14
2023-05-12T18:48:34.970Z,78.05
2023-05-12T18:51:02.013Z,77.79
2023-05-12T18:53:28.857Z,78.40
2023-05-12T18:55:55.839Z,77.92
2023-05-12T18:58:22.747Z,77.42
2023-05-12T19:00:49.738Z,77.58
2023-05-12T19:03:16.848Z,76.97
2023-05-12T19:05:43.749Z,76.82
2023-05-12T19:08:11.326Z,77.60
2023-05-12T19:10:40.020Z,77.88
2023-05-12T19:13:07.185Z,77.69
2023-05-12T19:15:34.089Z,77.50
2023-05-12T19:18:01.118Z,77.66
2023-05-12T19:20:28.130Z,77.44
2023-05-12T19:22:55.155Z,77.95
2023-05-12T19:25:22.490Z,78.04
2023-05-12T19:27:49.636Z,77.56
2023-05-12T19:30:16.837Z,77.71
2023-05-12T19:32:43.858Z,77.55
2023-05-12T19:35:10.713Z,77.66
2023-05-12T19:37:37.742Z,77.45
2023-05-12T19:40:05.554Z,77.25
2023-05-12T19:42:32.432Z,79.59
2023-05-12T19:44:59.647Z,78.91
2023-05-12T19:47:27.118Z,78.21
2023-05-12T19:49:54.020Z,78.33
2023-05-12T19:52:22.201Z,78.07
2023-05-12T19:54:49.106Z,78.50
2023-05-12T19:57:15.966Z,78.51
2023-05-12T19:59:42.864Z,78.26
2023-05-12T20:02:14.005Z,78.69
2023-05-12T20:04:41.086Z,77.14
2023-05-12T20:07:07.962Z,79.29
2023-05-12T20:09:34.986Z,81.37
2023-05-12T20:12:01.840Z,84.44
2023-05-12T20:14:28.711Z,86.69
2023-05-12T20:16:56.270Z,87.49
2023-05-12T20:19:23.219Z,87.09
2023-05-12T20:21:50.076Z,86.13
2023-05-12T20:24:17.194Z,86.23
2023-05-12T20:26:44.121Z,85.32
2023-05-12T20:29:11.074Z,84.51
2023-05-12T20:31:38.042Z,83.97
2023-05-12T20:34:05.001Z,83.27
2023-05-12T20:36:31.844Z,82.99
2023-05-12T20:38:58.751Z,82.78
2023-05-12T20:41:25.578Z,82.30
2023-05-12T20:43:52.333Z,82.44
2023-05-12T20:46:19.366Z,81.84
2023-05-12T20:48:46.315Z,81.16
2023-05-12T20:51:13.701Z,82.39
2023-05-12T20:53:40.881Z,81.77
2023-05-12T20:56:08.592Z,81.65
2023-05-12T20:58:35.750Z,83.86
2023-05-12T21:01:02.956Z,84.44
2023-05-12T21:03:30.522Z,84.33
2023-05-12T21:06:00.488Z,85.50
2023-05-12T21:08:27.562Z,86.29
2023-05-12T21:10:54.492Z,86.76
2023-05-12T21:13:21.310Z,88.43
2023-05-12T21:15:48.325Z,88.24
2023-05-12T21:18:15.214Z,88.74
2023-05-12T21:20:42.285Z,89.55
2023-05-12T21:23:11.265Z,89.01
2023-05-12T21:25:38.466Z,88.45
2023-05-12T21:28:06.019Z,87.00
2023-05-12T21:30:33.029Z,86.90
2023-05-12T21:33:04.327Z,86.35
2023-05-12T21:35:31.191Z,86.35
2023-05-12T21:37:58.074Z,86.87
2023-05-12T21:40:24.902Z,86.59
2023-05-12T21:42:51.773Z,86.50
2023-05-12T21:45:18.648Z,85.87
2023-05-12T21:47:45.542Z,86.47
2023-05-12T21:50:12.460Z,86.36
2023-05-12T21:52:39.579Z,86.54
2023-05-12T21:55:06.849Z,86.10
2023-05-12T21:57:33.807Z,86.04
2023-05-12T22:00:00.737Z,85.59
2023-05-12T22:02:27.682Z,86.30
2023-05-12T22:04:54.573Z,86.00
2023-05-12T22:07:24.484Z,86.33
2023-05-12T22:09:51.300Z,86.49
2023-05-12T22:12:18.493Z,85.14
2023-05-12T22:14:45.598Z,85.90
2023-05-12T22:17:12.453Z,86.22
2023-05-12T22:19:39.440Z,87.17
2023-05-12T22:22:06.384Z,87.97
2023-05-12T22:24:33.337Z,88.71
2023-05-12T22:27:00.211Z,87.93
2023-05-12T22:29:27.181Z,87.15
2023-05-12T22:31:54.101Z,87.31
2023-05-12T22:34:20.932Z,88.07
2023-05-12T22:36:47.877Z,88.02
2023-05-12T22:39:14.820Z,87.72
2023-05-12T22:41:41.704Z,88.14
2023-05-12T22:44:08.712Z,87.89
2023-05-12T22:46:35.549Z,87.49
2023-05-12T22:49:02.360Z,87.25
2023-05-12T22:51:29.276Z,86.69
2023-05-12T22:53:56.068Z,86.04
2023-05-12T22:56:22.906Z,86.02
2023-05-12T22:58:49.817Z,86.02
2023-05-12T23:01:16.719Z,85.67
2023-05-12T23:03:43.568Z,85.58
2023-05-12T23:06:10.497Z,85.40
2023-05-12T23:08:37.356Z,85.00
2023-05-12T23:11:04.174Z,85.34
2023-05-12T23:13:31.043Z,85.03
2023-05-12T23:15:57.844Z,84.60
2023-05-12T23:18:24.696Z,84.39
2023-05-12T23:20:51.779Z,83.78
2023-05-12T23:23:18.611Z,83.08
2023-05-12T23:25:47.086Z,82.62
2023-05-12T23:28:13.915Z,82.46
2023-05-12T23:30:40.703Z,82.62
2023-05-12T23:33:07.663Z,82.72
2023-05-12T23:35:34.699Z,82.67
2023-05-12T23:38:01.570Z,82.40
2023-05-12T23:40:28.393Z,82.30
2023-05-12T23:42:55.349Z,82.60
2023-05-12T23:45:22.196Z,82.72
2023-05-12T23:47:48.960Z,83.03
2023-05-12T23:50:16.291Z,83.53
2023-05-12T23:52:43.083Z,83.60
2023-05-12T23:55:10.023Z,83.75
2023-05-12T23:57:36.892Z,83.77
